Time;durP1;ratioP1;P1;durP2;ratioP2;P2;SDS_P1;SDS_P2;PMS_P1;PMS_P2;Temp;Humidity;BMP_temperature;BMP_pressure;BME280_temperature;BME280_humidity;BME280_pressure;Samples;Min_cycle;Max_cycle;Signal;HPM_P1;HPM_P2
2022/01/12 00:00:39;;;;;;;;;;;;;;;;;;5074001;28;20037;-87
2022/01/12 00:03:07;;;;;;;;;;;;;;;;;;5073866;28;19981;-87
2022/01/12 00:05:34;;;;;;;;;;;;;;;;;;5073835;28;19948;-87
2022/01/12 00:08:01;;;;;;;;;;;;;;;;;;5073545;28;20031;-88
2022/01/12 00:10:28;;;;;;;;;;;;;;;;;;5073805;28;20002;-87
2022/01/12 00:12:55;;;;;;;;;;;;;;;;;;5073660;28;20024;-87
2022/01/12 00:15:22;;;;;;;;;;;;;;;;;;5073749;28;20471;-85
2022/01/12 00:17:49;;;;;;;;;;;;;;;;;;5073970;28;20041;-88
2022/01/12 00:20:16;;;;;;;;;;;;;;;;;;5073755;28;20033;-88
2022/01/12 00:22:43;;;;;;;;;;;;;;;;;;5073743;28;20044;-87
2022/01/12 00:25:26;;;;;;;;;;;;;;;;;;5073698;28;19950;-87
2022/01/12 00:33:23;;;;;;;;;;;;;;;;;;5078194;28;19952;-87
2022/01/12 00:35:50;;;;;;;;;;;;;;;;;;5077667;28;20033;-88
2022/01/12 00:38:17;;;;;;;;;;;;;;;;;;5077874;28;20044;-87
2022/01/12 00:40:44;;;;;;;;;;;;;;;;;;5077615;28;19950;-87
2022/01/12 00:43:11;;;;;;;;;;;;;;;;;;5077523;28;20044;-88
2022/01/12 00:45:41;;;;;;;;;;;;;;;;;;5077593;28;20046;-88
2022/01/12 00:48:08;;;;;;;;;;;;;;;;;;5077768;28;20020;-87
2022/01/12 00:50:35;;;;;;;;;;;;;;;;;;5077225;28;19969;-87
2022/01/12 00:53:03;;;;;;;;;;;;;;;;;;5077795;28;20032;-88
2022/01/12 00:55:31;;;;;;;;;;;;;;;;;;5077419;28;20466;-88
2022/01/12 00:57:58;;;;;;;;;;;;;;;;;;5077380;28;20401;-88
2022/01/12 01:00:25;;;;;;;;;;;;;;;;;;5077222;28;20034;-87
2022/01/12 01:02:53;;;;;;;;;;;;;;;;;;5077186;28;19997;-88
2022/01/12 01:05:21;;;;;;;;;;;;;;;;;;5077352;28;19992;-88
2022/01/12 01:07:48;;;;;;;;;;;;;;;;;;5077354;28;19975;-87
2022/01/12 01:10:21;;;;;;;;;;;;;;;;;;5077075;28;20377;-88
2022/01/12 01:12:48;;;;;;;;;;;;;;;;;;5076898;28;20425;-88
2022/01/12 01:15:18;;;;;;;;;;;;;;;;;;5076950;28;19952;-87
2022/01/12 01:25:59;;;;;;;;;;;;;;;;;;5076975;28;19936;-88
2022/01/12 01:28:26;;;;;;;;;;;;;;;;;;5076820;28;20057;-87
2022/01/12 01:30:53;;;;;;;;;;;;;;;;;;5076887;28;20040;-88
2022/01/12 01:33:21;;;;;;;;;;;;;;;;;;5076728;28;20000;-87
2022/01/12 01:35:52;;;;;;;;;;;;;;;;;;5076874;28;20044;-88
2022/01/12 01:38:19;;;;;;;;;;;;;;;;;;5076542;28;20450;-87
2022/01/12 01:40:46;;;;;;;;;;;;;;;;;;5076768;28;20043;-88
2022/01/12 01:43:22;;;;;;;;;;;;;;;;;;5075717;28;20004;-87
2022/01/12 01:54:04;;;;;;;;;;;;;;;;;;5076520;28;20404;-87
2022/01/12 01:56:31;;;;;;;;;;;;;;;;;;5076183;28;19991;-88
2022/01/12 01:58:58;;;;;;;;;;;;;;;;;;5076463;28;19999;-88
2022/01/12 02:01:25;;;;;;;;;;;;;;;;;;5076368;28;20370;-87
2022/01/12 02:03:54;;;;;;;;;;;;;;;;;;5076276;28;20052;-87
2022/01/12 02:06:21;;;;;;;;;;;;;;;;;;5076098;28;20047;-87
2022/01/12 02:08:48;;;;;;;;;;;;;;;;;;5076030;28;20008;-87
2022/01/12 02:11:15;;;;;;;;;;;;;;;;;;5075938;28;20427;-88
2022/01/12 02:13:42;;;;;;;;;;;;;;;;;;5075831;28;20078;-87
2022/01/12 02:16:09;;;;;;;;;;;;;;;;;;5076125;28;20056;-87
2022/01/12 02:18:53;;;;;;;;;;;;;;;;;;5075787;28;19975;-88
2022/01/12 02:35:21;;;;;;;;;;;;;;;;;;5075840;28;19939;-87
2022/01/12 02:40:35;;;;;;;;;;;;;;;;;;5075540;28;19935;-87
2022/01/12 02:43:09;;;;;;;;;;;;;;;;;;5075321;28;19948;-87
2022/01/12 02:51:14;;;;;;;;;;;;;;;;;;5075380;28;19937;-88
2022/01/12 02:53:41;;;;;;;;;;;;;;;;;;5074919;28;20475;-87
2022/01/12 02:56:08;;;;;;;;;;;;;;;;;;5075203;28;19970;-88
2022/01/12 02:58:35;;;;;;;;;;;;;;;;;;5075349;28;20007;-88
2022/01/12 03:01:26;;;;;;;;;;;;;;;;;;5074992;28;20011;-87
2022/01/12 03:03:54;;;;;;;;;;;;;;;;;;5075228;28;19978;-88
2022/01/12 03:06:24;;;;;;;;;;;;;;;;;;5074950;28;19928;-87
2022/01/12 03:08:51;;;;;;;;;;;;;;;;;;5074987;28;19925;-87
2022/01/12 03:11:18;;;;;;;;;;;;;;;;;;5074817;28;20037;-88
2022/01/12 03:13:45;;;;;;;;;;;;;;;;;;5074743;28;20025;-88
2022/01/12 03:16:14;;;;;;;;;;;;;;;;;;5074471;28;20435;-87
2022/01/12 03:18:42;;;;;;;;;;;;;;;;;;5074618;28;19924;-87
2022/01/12 03:21:09;;;;;;;;;;;;;;;;;;5074870;28;19924;-87
2022/01/12 03:23:36;;;;;;;;;;;;;;;;;;5074563;28;20372;-88
2022/01/12 03:26:03;;;;;;;;;;;;;;;;;;5074385;28;20034;-88
2022/01/12 03:28:30;;;;;;;;;;;;;;;;;;5074292;28;19999;-87
2022/01/12 03:31:03;;;;;;;;;;;;;;;;;;5074703;28;19924;-87
2022/01/12 03:36:24;;;;;;;;;;;;;;;;;;5073442;28;19939;-87
2022/01/12 03:38:51;;;;;;;;;;;;;;;;;;5074183;28;19931;-87
2022/01/12 03:41:18;;;;;;;;;;;;;;;;;;5074061;28;20463;-87
2022/01/12 03:43:45;;;;;;;;;;;;;;;;;;5074158;28;20288;-87
2022/01/12 03:46:12;;;;;;;;;;;;;;;;;;5074123;28;20019;-87
2022/01/12 03:48:39;;;;;;;;;;;;;;;;;;5073876;28;19971;-87
2022/01/12 03:51:06;;;;;;;;;;;;;;;;;;5073937;28;20442;-87
2022/01/12 03:53:33;;;;;;;;;;;;;;;;;;5073955;28;20015;-87
2022/01/12 03:56:00;;;;;;;;;;;;;;;;;;5074115;28;20011;-87
2022/01/12 03:58:27;;;;;;;;;;;;;;;;;;5074154;28;20011;-87
2022/01/12 04:00:54;;;;;;;;;;;;;;;;;;5074023;28;20027;-87
2022/01/12 04:03:21;;;;;;;;;;;;;;;;;;5073696;28;20428;-88
2022/01/12 04:08:29;;;;;;;;;;;;;;;;;;5073112;28;20430;-87
2022/01/12 04:10:57;;;;;;;;;;;;;;;;;;5074028;28;19963;-86
2022/01/12 04:13:26;;;;;;;;;;;;;;;;;;5073591;28;19931;-87
2022/01/12 04:15:53;;;;;;;;;;;;;;;;;;5073739;28;19925;-87
2022/01/12 04:18:20;;;;;;;;;;;;;;;;;;5073630;28;20028;-87
2022/01/12 04:20:49;;;;;;;;;;;;;;;;;;5073458;28;20015;-87
2022/01/12 04:23:19;;;;;;;;;;;;;;;;;;5073819;28;20016;-87
2022/01/12 04:25:46;;;;;;;;;;;;;;;;;;5074301;28;20027;-88
2022/01/12 04:28:13;;;;;;;;;;;;;;;;;;5073724;28;20023;-88
2022/01/12 04:30:40;;;;;;;;;;;;;;;;;;5073567;28;20042;-87
2022/01/12 04:33:07;;;;;;;;;;;;;;;;;;5073612;28;20364;-88
2022/01/12 04:35:36;;;;;;;;;;;;;;;;;;5073718;28;20052;-88
2022/01/12 04:38:04;;;;;;;;;;;;;;;;;;5073756;28;19946;-87
2022/01/12 04:40:31;;;;;;;;;;;;;;;;;;5073594;28;20338;-88
2022/01/12 04:42:58;;;;;;;;;;;;;;;;;;5073689;28;19967;-88
2022/01/12 04:45:39;;;;;;;;;;;;;;;;;;5073532;28;19989;-87
2022/01/12 04:48:20;;;;;;;;;;;;;;;;;;5073698;28;20008;-88
2022/01/12 04:50:47;;;;;;;;;;;;;;;;;;5073400;28;19924;-88
2022/01/12 04:53:14;;;;;;;;;;;;;;;;;;5073907;28;20434;-89
2022/01/12 04:55:41;;;;;;;;;;;;;;;;;;5073475;28;19970;-88
2022/01/12 04:58:08;;;;;;;;;;;;;;;;;;5073663;28;20037;-88
2022/01/12 05:00:35;;;;;;;;;;;;;;;;;;5073377;28;20382;-87
2022/01/12 05:08:51;;;;;;;;;;;;;;;;;;5073345;28;20283;-88
2022/01/12 05:14:18;;;;;;;;;;;;;;;;;;5012022;28;19925;-89
2022/01/12 05:16:45;;;;;;;;;;;;;;;;;;5011999;28;20340;-88
2022/01/12 05:19:12;;;;;;;;;;;;;;;;;;5042399;28;19979;-88
2022/01/12 05:21:39;;;;;;;;;;;;;;;;;;5076967;28;20030;-89
2022/01/12 05:24:07;;;;;;;;;;;;;;;;;;5076996;28;20361;-88
2022/01/12 05:26:34;;;;;;;;;;;;;;;;;;5077394;28;19944;-88
2022/01/12 05:29:01;;;;;;;;;;;;;;;;;;5077696;28;19985;-89
2022/01/12 05:31:28;;;;;;;;;;;;;;;;;;5077074;28;20033;-87
2022/01/12 05:33:59;;;;;;;;;;;;;;;;;;5077269;28;20008;-89
2022/01/12 05:36:26;;;;;;;;;;;;;;;;;;5077240;28;19992;-89
2022/01/12 05:38:53;;;;;;;;;;;;;;;;;;5077494;28;19975;-88
2022/01/12 05:41:20;;;;;;;;;;;;;;;;;;5076778;28;20007;-88
2022/01/12 05:43:47;;;;;;;;;;;;;;;;;;5077079;28;20035;-89
2022/01/12 05:46:15;;;;;;;;;;;;;;;;;;5077206;28;19966;-88
2022/01/12 05:51:27;;;;;;;;;;;;;;;;;;5077382;28;19930;-90
2022/01/12 05:53:54;;;;;;;;;;;;;;;;;;5077610;28;19952;-88
2022/01/12 05:56:21;;;;;;;;;;;;;;;;;;5076815;28;20019;-89
2022/01/12 05:58:49;;;;;;;;;;;;;;;;;;5077061;28;20043;-90
2022/01/12 06:01:16;;;;;;;;;;;;;;;;;;5076954;28;19931;-89
2022/01/12 06:03:43;;;;;;;;;;;;;;;;;;5076585;28;20345;-90
2022/01/12 06:06:10;;;;;;;;;;;;;;;;;;5076598;28;19932;-88
2022/01/12 06:08:37;;;;;;;;;;;;;;;;;;5076858;28;20058;-90
2022/01/12 06:11:05;;;;;;;;;;;;;;;;;;5076925;28;20011;-90
2022/01/12 06:13:32;;;;;;;;;;;;;;;;;;5076910;28;19928;-90
2022/01/12 06:15:59;;;;;;;;;;;;;;;;;;5076545;28;20007;-90
2022/01/12 06:18:26;;;;;;;;;;;;;;;;;;5076520;28;20447;-90
2022/01/12 06:20:53;;;;;;;;;;;;;;;;;;5076397;28;20034;-90
2022/01/12 06:23:20;;;;;;;;;;;;;;;;;;5076400;28;20034;-90
2022/01/12 06:25:47;;;;;;;;;;;;;;;;;;5076457;28;19943;-91
2022/01/12 06:28:36;;;;;;;;;;;;;;;;;;5076606;28;19925;-90
2022/01/12 06:31:13;;;;;;;;;;;;;;;;;;5076789;28;20027;-89
2022/01/12 06:33:40;;;;;;;;;;;;;;;;;;5077108;28;20030;-90
2022/01/12 06:36:07;;;;;;;;;;;;;;;;;;5076203;28;20018;-90
2022/01/12 06:38:34;;;;;;;;;;;;;;;;;;5076486;28;20011;-88
2022/01/12 06:41:01;;;;;;;;;;;;;;;;;;5075960;28;20447;-91
2022/01/12 06:43:29;;;;;;;;;;;;;;;;;;5077045;28;20063;-93
2022/01/12 06:45:56;;;;;;;;;;;;;;;;;;5076512;28;19986;-92
2022/01/12 06:48:23;;;;;;;;;;;;;;;;;;5076393;28;19928;-93
2022/01/12 06:50:50;;;;;;;;;;;;;;;;;;5076625;28;20078;-92
2022/01/12 06:53:17;;;;;;;;;;;;;;;;;;5076317;28;20023;-91
2022/01/12 06:55:44;;;;;;;;;;;;;;;;;;5076420;28;19925;-91
2022/01/12 06:58:11;;;;;;;;;;;;;;;;;;5076457;28;19988;-91
2022/01/12 07:00:38;;;;;;;;;;;;;;;;;;5075968;28;20459;-92
2022/01/12 07:03:05;;;;;;;;;;;;;;;;;;5076208;28;20042;-88
2022/01/12 07:05:32;;;;;;;;;;;;;;;;;;5083724;28;19997;-90
2022/01/12 07:07:59;;;;;;;;;;;;;;;;;;5090655;28;20364;-90
2022/01/12 07:10:26;;;;;;;;;;;;;;;;;;5087516;28;20425;-90
2022/01/12 07:12:53;;;;;;;;;;;;;;;;;;5088954;28;19972;-89
2022/01/12 07:15:20;;;;;;;;;;;;;;;;;;5087795;28;19964;-89
2022/01/12 07:17:48;;;;;;;;;;;;;;;;;;5088140;28;19988;-89
2022/01/12 07:20:16;;;;;;;;;;;;;;;;;;5086369;28;19931;-88
2022/01/12 07:22:43;;;;;;;;;;;;;;;;;;5088308;28;20002;-90
2022/01/12 07:25:10;;;;;;;;;;;;;;;;;;5085986;28;19963;-90
2022/01/12 07:27:37;;;;;;;;;;;;;;;;;;5086705;28;19971;-89
2022/01/12 07:30:04;;;;;;;;;;;;;;;;;;5081953;28;20028;-90
2022/01/12 07:32:31;;;;;;;;;;;;;;;;;;5082951;28;20390;-90
2022/01/12 07:34:58;;;;;;;;;;;;;;;;;;5080418;28;20015;-90
2022/01/12 07:37:25;;;;;;;;;;;;;;;;;;5080900;28;19991;-89
2022/01/12 07:39:52;;;;;;;;;;;;;;;;;;5080066;28;20007;-90
2022/01/12 07:42:19;;;;;;;;;;;;;;;;;;5082566;28;20083;-89
2022/01/12 07:44:46;;;;;;;;;;;;;;;;;;5078691;28;20029;-89
2022/01/12 07:47:13;;;;;;;;;;;;;;;;;;5076704;28;19943;-89
2022/01/12 07:49:40;;;;;;;;;;;;;;;;;;5081593;28;19963;-89
2022/01/12 07:52:07;;;;;;;;;;;;;;;;;;5080896;28;20015;-89
2022/01/12 07:54:34;;;;;;;;;;;;;;;;;;5084487;28;19971;-88
2022/01/12 07:57:01;;;;;;;;;;;;;;;;;;5077966;28;20000;-88
2022/01/12 07:59:28;;;;;;;;;;;;;;;;;;5075525;28;20359;-88
2022/01/12 08:01:55;;;;;;;;;;;;;;;;;;5075952;28;20018;-88
2022/01/12 08:04:22;;;;;;;;;;;;;;;;;;5078256;28;20431;-89
2022/01/12 08:06:49;;;;;;;;;;;;;;;;;;5073802;28;19990;-84
2022/01/12 08:09:16;;;;;;;;;;;;;;;;;;5073514;28;19955;-85
2022/01/12 08:11:43;;;;;;;;;;;;;;;;;;5073658;28;20007;-84
2022/01/12 08:14:10;;;;;;;;;;;;;;;;;;5073885;28;20007;-84
2022/01/12 08:16:38;;;;;;;;;;;;;;;;;;5082530;28;19960;-85
2022/01/12 08:19:05;;;;;;;;;;;;;;;;;;5093908;28;20288;-84
2022/01/12 08:21:32;;;;;;;;;;;;;;;;;;5093737;28;20329;-83
2022/01/12 08:23:59;;;;;;;;;;;;;;;;;;5094005;28;20031;-84
2022/01/12 08:26:26;;;;;;;;;;;;;;;;;;5093870;28;19931;-84
2022/01/12 08:28:53;;;;;;;;;;;;;;;;;;5092778;28;20401;-83
2022/01/12 08:31:21;;;;;;;;;;;;;;;;;;5093661;28;20012;-83
2022/01/12 08:33:48;;;;;;;;;;;;;;;;;;5093705;28;19924;-84
2022/01/12 08:36:15;;;;;;;;;;;;;;;;;;5093662;28;20040;-83
2022/01/12 08:38:42;;;;;;;;;;;;;;;;;;5089041;28;20003;-83
2022/01/12 08:41:09;;;;;;;;;;;;;;;;;;5080991;28;19938;-83
2022/01/12 08:43:36;;;;;;;;;;;;;;;;;;5078441;28;19985;-83
2022/01/12 08:46:03;;;;;;;;;;;;;;;;;;5087592;28;19985;-83
2022/01/12 08:48:30;;;;;;;;;;;;;;;;;;5076883;28;19969;-83
2022/01/12 08:50:57;;;;;;;;;;;;;;;;;;5080162;28;20007;-83
2022/01/12 08:53:24;;;;;;;;;;;;;;;;;;5080029;28;20011;-83
2022/01/12 08:55:51;;;;;;;;;;;;;;;;;;5076960;28;20011;-83
2022/01/12 08:58:18;;;;;;;;;;;;;;;;;;5077329;28;20033;-83
2022/01/12 09:00:45;;;;;;;;;;;;;;;;;;5077295;28;19948;-83
2022/01/12 09:03:12;;;;;;;;;;;;;;;;;;5077045;28;20465;-82
2022/01/12 09:05:39;;;;;;;;;;;;;;;;;;5076965;28;20029;-83
2022/01/12 09:08:06;;;;;;;;;;;;;;;;;;5076860;28;20438;-83
2022/01/12 09:10:33;;;;;;;;;;;;;;;;;;5077162;28;20019;-84
2022/01/12 09:13:00;;;;;;;;;;;;;;;;;;5076822;28;20454;-83
2022/01/12 09:15:27;;;;;;;;;;;;;;;;;;5076940;28;20007;-83
2022/01/12 09:17:54;;;;;;;;;;;;;;;;;;5076642;28;20291;-83
2022/01/12 09:20:21;;;;;;;;;;;;;;;;;;5076750;28;20041;-84
2022/01/12 09:22:48;;;;;;;;;;;;;;;;;;5077081;28;20030;-83
2022/01/12 09:25:15;;;;;;;;;;;;;;;;;;5076599;28;19982;-83
2022/01/12 09:27:42;;;;;;;;;;;;;;;;;;5076792;28;20027;-83
2022/01/12 09:30:09;;;;;;;;;;;;;;;;;;5076659;28;20034;-84
2022/01/12 09:32:36;;;;;;;;;;;;;;;;;;5076639;28;20007;-83
2022/01/12 09:35:03;;;;;;;;;;;;;;;;;;5076521;28;20020;-82
2022/01/12 09:37:30;;;;;;;;;;;;;;;;;;5076506;28;20375;-84
2022/01/12 09:39:57;;;;;;;;;;;;;;;;;;5076620;28;20033;-83
2022/01/12 09:42:24;;;;;;;;;;;;;;;;;;5076575;28;19990;-83
2022/01/12 09:44:52;;;;;;;;;;;;;;;;;;5076553;28;20019;-83
2022/01/12 09:47:19;;;;;;;;;;;;;;;;;;5076366;28;19987;-84
2022/01/12 09:49:46;;;;;;;;;;;;;;;;;;5075912;28;20007;-84
2022/01/12 09:52:13;;;;;;;;;;;;;;;;;;5076407;28;20037;-84
2022/01/12 09:54:40;;;;;;;;;;;;;;;;;;5076347;28;19925;-83
2022/01/12 09:57:10;;;;;;;;;;;;;;;;;;5076127;28;20359;-84
2022/01/12 09:59:37;;;;;;;;;;;;;;;;;;5075710;28;19935;-83
2022/01/12 10:02:04;;;;;;;;;;;;;;;;;;5075436;28;20032;-83
2022/01/12 10:04:31;;;;;;;;;;;;;;;;;;5074971;28;20391;-83
2022/01/12 10:06:58;;;;;;;;;;;;;;;;;;5077082;28;20011;-83
2022/01/12 10:09:25;;;;;;;;;;;;;;;;;;5076399;28;20364;-83
2022/01/12 10:11:52;;;;;;;;;;;;;;;;;;5075875;28;19943;-83
2022/01/12 10:14:19;;;;;;;;;;;;;;;;;;5076147;28;20358;-83
2022/01/12 10:16:46;;;;;;;;;;;;;;;;;;5076171;28;20041;-84
2022/01/12 10:19:13;;;;;;;;;;;;;;;;;;5076608;28;20015;-82
2022/01/12 10:21:40;;;;;;;;;;;;;;;;;;5075997;28;20041;-82
2022/01/12 10:24:07;;;;;;;;;;;;;;;;;;5075997;28;20016;-83
2022/01/12 10:26:36;;;;;;;;;;;;;;;;;;5076099;28;20278;-83
2022/01/12 10:29:03;;;;;;;;;;;;;;;;;;5075298;28;20348;-83
2022/01/12 10:31:30;;;;;;;;;;;;;;;;;;5075733;28;20011;-83
2022/01/12 10:33:57;;;;;;;;;;;;;;;;;;5076243;28;19925;-83
2022/01/12 10:36:24;;;;;;;;;;;;;;;;;;5075363;28;20387;-83
2022/01/12 10:38:51;;;;;;;;;;;;;;;;;;5075438;28;20015;-83
2022/01/12 10:41:18;;;;;;;;;;;;;;;;;;5075032;28;20370;-83
2022/01/12 10:43:45;;;;;;;;;;;;;;;;;;5075176;28;20049;-83
2022/01/12 10:46:12;;;;;;;;;;;;;;;;;;5075351;28;20003;-83
2022/01/12 10:48:40;;;;;;;;;;;;;;;;;;5075606;28;20016;-83
2022/01/12 10:51:07;;;;;;;;;;;;;;;;;;5074920;28;20437;-83
2022/01/12 10:53:34;;;;;;;;;;;;;;;;;;5075325;28;19928;-83
2022/01/12 10:56:01;;;;;;;;;;;;;;;;;;5075142;28;19928;-83
2022/01/12 10:58:28;;;;;;;;;;;;;;;;;;5075080;28;20031;-83
2022/01/12 11:00:55;;;;;;;;;;;;;;;;;;5075494;28;20037;-81
2022/01/12 11:03:22;;;;;;;;;;;;;;;;;;5075041;28;19970;-83
2022/01/12 11:05:50;;;;;;;;;;;;;;;;;;5074700;28;20038;-83
2022/01/12 11:08:17;;;;;;;;;;;;;;;;;;5074574;28;20437;-83
2022/01/12 11:10:44;;;;;;;;;;;;;;;;;;5074611;28;20011;-82
2022/01/12 11:13:11;;;;;;;;;;;;;;;;;;5074714;28;20029;-83
2022/01/12 11:15:38;;;;;;;;;;;;;;;;;;5075021;28;19956;-82
2022/01/12 11:18:07;;;;;;;;;;;;;;;;;;5074556;28;20361;-81
2022/01/12 11:20:34;;;;;;;;;;;;;;;;;;5074697;28;19929;-80
2022/01/12 11:23:01;;;;;;;;;;;;;;;;;;5074882;28;19986;-81
2022/01/12 11:25:28;;;;;;;;;;;;;;;;;;5074574;28;20393;-81
2022/01/12 11:27:55;;;;;;;;;;;;;;;;;;5074310;28;20025;-81
2022/01/12 11:30:22;;;;;;;;;;;;;;;;;;5074527;28;20463;-80
2022/01/12 11:32:49;;;;;;;;;;;;;;;;;;5074656;28;19960;-82
2022/01/12 11:35:16;;;;;;;;;;;;;;;;;;5074292;28;20356;-81
2022/01/12 11:37:43;;;;;;;;;;;;;;;;;;5074202;28;20003;-82
2022/01/12 11:40:10;;;;;;;;;;;;;;;;;;5074123;28;20455;-82
2022/01/12 11:42:37;;;;;;;;;;;;;;;;;;5074197;28;20011;-82
2022/01/12 11:45:05;;;;;;;;;;;;;;;;;;5074513;28;19958;-83
2022/01/12 11:47:32;;;;;;;;;;;;;;;;;;5074265;28;20042;-82
2022/01/12 11:49:59;;;;;;;;;;;;;;;;;;5073852;28;19963;-82
2022/01/12 11:52:27;;;;;;;;;;;;;;;;;;5074309;28;19924;-84
2022/01/12 11:54:54;;;;;;;;;;;;;;;;;;5074308;28;19928;-84
2022/01/12 11:57:21;;;;;;;;;;;;;;;;;;5074323;28;19924;-84
2022/01/12 11:59:48;;;;;;;;;;;;;;;;;;5073996;28;20414;-83
2022/01/12 12:02:15;;;;;;;;;;;;;;;;;;5074855;28;20034;-84
2022/01/12 12:04:42;;;;;;;;;;;;;;;;;;5074216;28;19925;-84
2022/01/12 12:07:09;;;;;;;;;;;;;;;;;;5073938;28;20034;-83
2022/01/12 12:09:36;;;;;;;;;;;;;;;;;;5073788;28;19982;-83
2022/01/12 12:12:03;;;;;;;;;;;;;;;;;;5073778;28;20033;-84
2022/01/12 12:14:30;;;;;;;;;;;;;;;;;;5074027;28;20042;-83
2022/01/12 12:16:57;;;;;;;;;;;;;;;;;;5074144;28;20016;-84
2022/01/12 12:19:24;;;;;;;;;;;;;;;;;;5074286;28;20031;-85
2022/01/12 12:21:51;;;;;;;;;;;;;;;;;;5073640;28;20285;-84
2022/01/12 12:24:18;;;;;;;;;;;;;;;;;;5073974;28;20012;-83
2022/01/12 12:26:46;;;;;;;;;;;;;;;;;;5072899;28;20016;-82
2022/01/12 12:29:13;;;;;;;;;;;;;;;;;;5073746;28;19924;-82
2022/01/12 12:31:40;;;;;;;;;;;;;;;;;;5073562;28;19935;-83
2022/01/12 12:34:07;;;;;;;;;;;;;;;;;;5073639;28;20285;-83
2022/01/12 12:36:34;;;;;;;;;;;;;;;;;;5072460;28;20041;-84
2022/01/12 12:39:01;;;;;;;;;;;;;;;;;;5073158;28;20020;-82
2022/01/12 12:41:28;;;;;;;;;;;;;;;;;;5073510;28;19942;-83
2022/01/12 12:43:55;;;;;;;;;;;;;;;;;;5073682;28;20607;-84
2022/01/12 12:46:22;;;;;;;;;;;;;;;;;;5073640;28;19929;-83
2022/01/12 12:48:49;;;;;;;;;;;;;;;;;;5073487;28;20029;-83
2022/01/12 12:51:17;;;;;;;;;;;;;;;;;;5073849;28;20019;-83
2022/01/12 12:53:44;;;;;;;;;;;;;;;;;;5073490;28;19943;-84
2022/01/12 12:56:12;;;;;;;;;;;;;;;;;;5073572;28;20456;-83
2022/01/12 12:58:40;;;;;;;;;;;;;;;;;;5073281;28;19988;-83
2022/01/12 13:01:07;;;;;;;;;;;;;;;;;;5073621;28;19924;-83
2022/01/12 13:03:34;;;;;;;;;;;;;;;;;;5073505;28;20009;-84
2022/01/12 13:06:01;;;;;;;;;;;;;;;;;;5073405;28;19972;-83
2022/01/12 13:08:28;;;;;;;;;;;;;;;;;;5073372;28;19988;-85
2022/01/12 13:10:55;;;;;;;;;;;;;;;;;;5072845;28;20380;-84
2022/01/12 13:13:22;;;;;;;;;;;;;;;;;;5072483;28;19988;-83
2022/01/12 13:15:49;;;;;;;;;;;;;;;;;;5072952;28;20030;-84
2022/01/12 13:18:16;;;;;;;;;;;;;;;;;;5072827;28;19987;-83
2022/01/12 13:23:27;;;;;;;;;;;;;;;;;;5073153;28;20029;-83
2022/01/12 13:25:54;;;;;;;;;;;;;;;;;;5073169;28;19928;-85
2022/01/12 13:28:21;;;;;;;;;;;;;;;;;;5073102;28;20018;-82
2022/01/12 13:30:48;;;;;;;;;;;;;;;;;;5072699;28;19998;-84
2022/01/12 13:33:15;;;;;;;;;;;;;;;;;;5073014;28;20037;-83
2022/01/12 13:35:42;;;;;;;;;;;;;;;;;;5072914;28;20456;-83
2022/01/12 13:38:10;;;;;;;;;;;;;;;;;;5072993;28;19925;-83
2022/01/12 13:40:37;;;;;;;;;;;;;;;;;;5075756;28;19931;-83
2022/01/12 13:43:04;;;;;;;;;;;;;;;;;;5076630;28;20019;-82
2022/01/12 13:45:37;;;;;;;;;;;;;;;;;;5076439;28;20291;-84
2022/01/12 13:48:12;;;;;;;;;;;;;;;;;;5076931;28;20011;-84
2022/01/12 13:50:39;;;;;;;;;;;;;;;;;;5075820;28;19969;-83
2022/01/12 13:53:06;;;;;;;;;;;;;;;;;;5075868;28;19925;-83
2022/01/12 13:55:33;;;;;;;;;;;;;;;;;;5076741;28;19978;-83
2022/01/12 13:58:04;;;;;;;;;;;;;;;;;;5076464;28;19999;-83
2022/01/12 14:00:31;;;;;;;;;;;;;;;;;;5076611;28;19925;-84
2022/01/12 14:02:58;;;;;;;;;;;;;;;;;;5076379;28;19960;-83
2022/01/12 14:05:25;;;;;;;;;;;;;;;;;;5076263;28;19975;-84
2022/01/12 14:08:00;;;;;;;;;;;;;;;;;;5076258;28;19975;-84
2022/01/12 14:10:27;;;;;;;;;;;;;;;;;;5076087;28;19931;-83
2022/01/12 14:12:54;;;;;;;;;;;;;;;;;;5076219;28;19943;-84
2022/01/12 14:15:21;;;;;;;;;;;;;;;;;;5076034;28;19978;-84
2022/01/12 14:17:48;;;;;;;;;;;;;;;;;;5075708;28;20029;-83
2022/01/12 14:20:22;;;;;;;;;;;;;;;;;;5076018;28;19970;-84
2022/01/12 14:22:49;;;;;;;;;;;;;;;;;;5076113;28;19931;-83
2022/01/12 14:25:16;;;;;;;;;;;;;;;;;;5075781;28;19924;-82
2022/01/12 14:27:43;;;;;;;;;;;;;;;;;;5075914;28;20039;-84
2022/01/12 14:30:10;;;;;;;;;;;;;;;;;;5076134;28;20021;-83
2022/01/12 14:32:37;;;;;;;;;;;;;;;;;;5075434;28;20048;-83
2022/01/12 14:35:04;;;;;;;;;;;;;;;;;;5075659;28;20373;-83
2022/01/12 14:37:31;;;;;;;;;;;;;;;;;;5075766;28;20026;-83
2022/01/12 14:39:58;;;;;;;;;;;;;;;;;;5075278;28;20007;-83
2022/01/12 14:42:25;;;;;;;;;;;;;;;;;;5075637;28;20016;-83
2022/01/12 14:44:52;;;;;;;;;;;;;;;;;;5075536;28;19924;-84
2022/01/12 14:47:19;;;;;;;;;;;;;;;;;;5075072;28;19931;-84
2022/01/12 14:49:46;;;;;;;;;;;;;;;;;;5074531;28;20016;-84
2022/01/12 14:52:13;;;;;;;;;;;;;;;;;;5075712;28;20053;-84
2022/01/12 14:54:40;;;;;;;;;;;;;;;;;;5075272;28;19996;-83
2022/01/12 14:57:07;;;;;;;;;;;;;;;;;;5075289;28;19924;-84
2022/01/12 14:59:34;;;;;;;;;;;;;;;;;;5075300;28;20041;-84
2022/01/12 15:02:01;;;;;;;;;;;;;;;;;;5074921;28;20015;-83
2022/01/12 15:04:30;;;;;;;;;;;;;;;;;;5074987;28;20037;-83
2022/01/12 15:06:57;;;;;;;;;;;;;;;;;;5073523;28;19981;-84
2022/01/12 15:09:24;;;;;;;;;;;;;;;;;;5075112;28;20007;-84
2022/01/12 15:11:51;;;;;;;;;;;;;;;;;;5075327;28;20057;-84
2022/01/12 15:14:31;;;;;;;;;;;;;;;;;;5075188;28;19946;-84
2022/01/12 15:16:58;;;;;;;;;;;;;;;;;;5075226;28;19943;-84
2022/01/12 15:19:25;;;;;;;;;;;;;;;;;;5075383;28;20018;-84
2022/01/12 15:21:52;;;;;;;;;;;;;;;;;;5074586;28;20015;-84
2022/01/12 15:24:20;;;;;;;;;;;;;;;;;;5076168;28;19944;-84
2022/01/12 15:26:47;;;;;;;;;;;;;;;;;;5079353;28;20413;-84
2022/01/12 15:29:14;;;;;;;;;;;;;;;;;;5075537;28;20015;-84
2022/01/12 15:31:41;;;;;;;;;;;;;;;;;;5074597;28;19977;-83
2022/01/12 15:34:08;;;;;;;;;;;;;;;;;;5074657;28;20015;-83
2022/01/12 15:36:35;;;;;;;;;;;;;;;;;;5074652;28;20582;-83
2022/01/12 15:39:02;;;;;;;;;;;;;;;;;;5074643;28;20034;-83
2022/01/12 15:41:29;;;;;;;;;;;;;;;;;;5074081;28;20012;-83
2022/01/12 15:43:56;;;;;;;;;;;;;;;;;;5074070;28;20007;-83
2022/01/12 15:46:23;;;;;;;;;;;;;;;;;;5074621;28;20011;-84
2022/01/12 15:48:51;;;;;;;;;;;;;;;;;;5073990;28;19959;-83
2022/01/12 15:51:18;;;;;;;;;;;;;;;;;;5073886;28;19946;-83
2022/01/12 15:53:45;;;;;;;;;;;;;;;;;;5073974;28;20047;-83
2022/01/12 15:56:12;;;;;;;;;;;;;;;;;;5073774;28;19949;-83
2022/01/12 15:58:40;;;;;;;;;;;;;;;;;;5074023;28;19997;-84
2022/01/12 16:01:07;;;;;;;;;;;;;;;;;;5073610;28;19925;-84
2022/01/12 16:03:34;;;;;;;;;;;;;;;;;;5073480;28;19929;-83
2022/01/12 16:06:01;;;;;;;;;;;;;;;;;;5073932;28;19993;-84
2022/01/12 16:08:28;;;;;;;;;;;;;;;;;;5073245;28;20067;-84
2022/01/12 16:10:57;;;;;;;;;;;;;;;;;;5073641;28;20005;-84
2022/01/12 16:13:24;;;;;;;;;;;;;;;;;;5073584;28;19952;-84
2022/01/12 16:15:51;;;;;;;;;;;;;;;;;;5073763;28;19931;-84
2022/01/12 16:18:18;;;;;;;;;;;;;;;;;;5073612;28;20007;-84
2022/01/12 16:20:45;;;;;;;;;;;;;;;;;;5073646;28;19997;-84
2022/01/12 16:23:12;;;;;;;;;;;;;;;;;;5073529;28;20042;-84
2022/01/12 16:25:40;;;;;;;;;;;;;;;;;;5073490;28;20381;-83
2022/01/12 16:28:07;;;;;;;;;;;;;;;;;;5073480;28;19953;-84
2022/01/12 16:30:34;;;;;;;;;;;;;;;;;;5073672;28;20007;-84
2022/01/12 16:33:01;;;;;;;;;;;;;;;;;;5073564;28;20002;-83
2022/01/12 16:35:28;;;;;;;;;;;;;;;;;;5073514;28;20034;-84
2022/01/12 16:37:55;;;;;;;;;;;;;;;;;;5073765;28;20008;-84
2022/01/12 16:40:22;;;;;;;;;;;;;;;;;;5073385;28;20464;-84
2022/01/12 16:42:49;;;;;;;;;;;;;;;;;;5073567;28;20038;-84
2022/01/12 16:45:16;;;;;;;;;;;;;;;;;;5073473;28;20031;-83
2022/01/12 16:47:43;;;;;;;;;;;;;;;;;;5073238;28;20023;-83
2022/01/12 16:50:10;;;;;;;;;;;;;;;;;;5073231;28;20054;-83
2022/01/12 16:52:37;;;;;;;;;;;;;;;;;;5073088;28;20057;-83
2022/01/12 16:55:05;;;;;;;;;;;;;;;;;;5073482;28;19999;-83
2022/01/12 16:57:32;;;;;;;;;;;;;;;;;;5073003;28;19943;-83
2022/01/12 16:59:59;;;;;;;;;;;;;;;;;;5073316;28;19943;-84
2022/01/12 17:02:26;;;;;;;;;;;;;;;;;;5073402;28;19978;-83
2022/01/12 17:04:53;;;;;;;;;;;;;;;;;;5073078;28;20465;-83
2022/01/12 17:07:22;;;;;;;;;;;;;;;;;;5073193;28;19986;-83
2022/01/12 17:09:49;;;;;;;;;;;;;;;;;;5073107;28;19949;-84
2022/01/12 17:12:16;;;;;;;;;;;;;;;;;;5072905;28;20002;-84
2022/01/12 17:14:43;;;;;;;;;;;;;;;;;;5076425;28;20033;-84
2022/01/12 17:17:11;;;;;;;;;;;;;;;;;;5076802;28;19924;-84
2022/01/12 17:19:38;;;;;;;;;;;;;;;;;;5076818;28;19943;-84
2022/01/12 17:22:07;;;;;;;;;;;;;;;;;;5077058;28;19950;-84
2022/01/12 17:24:34;;;;;;;;;;;;;;;;;;5076795;28;20351;-83
2022/01/12 17:27:01;;;;;;;;;;;;;;;;;;5076857;28;20041;-84
2022/01/12 17:29:28;;;;;;;;;;;;;;;;;;5076755;28;20033;-84
2022/01/12 17:31:55;;;;;;;;;;;;;;;;;;5076530;28;20049;-84
2022/01/12 17:34:22;;;;;;;;;;;;;;;;;;5076536;28;20013;-84
2022/01/12 17:36:49;;;;;;;;;;;;;;;;;;5076794;28;20037;-84
2022/01/12 17:39:16;;;;;;;;;;;;;;;;;;5076437;28;20030;-84
2022/01/12 17:41:44;;;;;;;;;;;;;;;;;;5076293;28;20034;-83
2022/01/12 17:44:11;;;;;;;;;;;;;;;;;;5076438;28;19925;-83
2022/01/12 17:46:39;;;;;;;;;;;;;;;;;;5076369;28;20040;-84
2022/01/12 17:49:12;;;;;;;;;;;;;;;;;;5076059;28;19964;-83
2022/01/12 17:51:39;;;;;;;;;;;;;;;;;;5076486;28;19970;-83